Terminal Aerodrome Forecast
Issued by NWS

Home | Current Version | Previous Version | Text Only | Print | Product List | Glossary On
Versions: 1 2 3 4 5 6 7 8 9 10 11 12 13 14
142
FTUS44 KTSA 260524
TAFFYV
TAF
KFYV 260524Z 2606/2706 18003KT P6SM SCT200
     FM261600 17010KT P6SM SCT060 BKN120
     FM262200 16008KT P6SM SCT050
     FM270200 16005KT P6SM BKN040=

USA.gov is the U.S. government's official web portal to all federal, state and local government web resources and services.